sensor_id;sensor_type;location;lat;lon;timestamp;pressure;altitude;pressure_sealevel;temperature;humidity
51460;BME280;37534;39.772;2.718;2023-12-20T00:00:19;102055.69;;;3.61;100.00
51460;BME280;37534;39.772;2.718;2023-12-20T00:02:45;102037.41;;;3.79;100.00
51460;BME280;37534;39.772;2.718;2023-12-20T00:05:13;102019.78;;;3.90;100.00
51460;BME280;37534;39.772;2.718;2023-12-20T00:07:39;102027.88;;;3.72;100.00
51460;BME280;37534;39.772;2.718;2023-12-20T00:10:05;102031.97;;;3.66;100.00
51460;BME280;37534;39.772;2.718;2023-12-20T00:12:30;102018.19;;;3.57;100.00
51460;BME280;37534;39.772;2.718;2023-12-20T00:14:56;102031.94;;;3.64;100.00
51460;BME280;37534;39.772;2.718;2023-12-20T00:17:21;102034.84;;;3.79;100.00
51460;BME280;37534;39.772;2.718;2023-12-20T00:19:47;102035.97;;;3.92;100.00
51460;BME280;37534;39.772;2.718;2023-12-20T00:22:12;102023.72;;;3.76;100.00
51460;BME280;37534;39.772;2.718;2023-12-20T00:24:38;102024.00;;;3.53;100.00
51460;BME280;37534;39.772;2.718;2023-12-20T00:27:03;102019.03;;;3.58;100.00
51460;BME280;37534;39.772;2.718;2023-12-20T00:29:29;102006.84;;;3.46;100.00
51460;BME280;37534;39.772;2.718;2023-12-20T00:31:54;102013.75;;;3.50;100.00
51460;BME280;37534;39.772;2.718;2023-12-20T00:34:20;101997.13;;;3.68;100.00
51460;BME280;37534;39.772;2.718;2023-12-20T00:36:46;101977.69;;;3.73;100.00
51460;BME280;37534;39.772;2.718;2023-12-20T00:39:12;101988.84;;;3.78;100.00
51460;BME280;37534;39.772;2.718;2023-12-20T00:41:38;101997.97;;;3.67;100.00
51460;BME280;37534;39.772;2.718;2023-12-20T00:44:03;101977.97;;;3.47;100.00
51460;BME280;37534;39.772;2.718;2023-12-20T00:46:29;101967.50;;;3.36;100.00
51460;BME280;37534;39.772;2.718;2023-12-20T00:48:55;101975.19;;;3.38;100.00
51460;BME280;37534;39.772;2.718;2023-12-20T00:51:20;101969.94;;;3.32;100.00
51460;BME280;37534;39.772;2.718;2023-12-20T00:53:49;101951.25;;;3.33;100.00
51460;BME280;37534;39.772;2.718;2023-12-20T00:56:15;101957.44;;;3.42;100.00
51460;BME280;37534;39.772;2.718;2023-12-20T00:58:41;101949.63;;;3.36;100.00
51460;BME280;37534;39.772;2.718;2023-12-20T01:01:06;101941.06;;;3.33;100.00
51460;BME280;37534;39.772;2.718;2023-12-20T01:03:32;101929.75;;;3.23;100.00
51460;BME280;37534;39.772;2.718;2023-12-20T01:05:57;101935.69;;;3.22;100.00
51460;BME280;37534;39.772;2.718;2023-12-20T01:08:23;101931.44;;;3.22;100.00
51460;BME280;37534;39.772;2.718;2023-12-20T01:10:48;101918.91;;;3.32;100.00
51460;BME280;37534;39.772;2.718;2023-12-20T01:13:14;101931.91;;;3.42;100.00
51460;BME280;37534;39.772;2.718;2023-12-20T01:15:39;101918.09;;;3.33;100.00
51460;BME280;37534;39.772;2.718;2023-12-20T01:18:05;101926.50;;;3.29;100.00
51460;BME280;37534;39.772;2.718;2023-12-20T01:20:30;101914.16;;;3.09;100.00
51460;BME280;37534;39.772;2.718;2023-12-20T01:22:56;101920.06;;;3.08;100.00
51460;BME280;37534;39.772;2.718;2023-12-20T01:25:22;101921.31;;;2.91;100.00
51460;BME280;37534;39.772;2.718;2023-12-20T01:27:48;101917.28;;;2.99;100.00
51460;BME280;37534;39.772;2.718;2023-12-20T01:30:14;101909.00;;;3.08;100.00
51460;BME280;37534;39.772;2.718;2023-12-20T01:32:40;101909.00;;;3.08;100.00
51460;BME280;37534;39.772;2.718;2023-12-20T01:35:06;101904.25;;;2.87;100.00
51460;BME280;37534;39.772;2.718;2023-12-20T01:37:31;101928.31;;;2.98;100.00
51460;BME280;37534;39.772;2.718;2023-12-20T01:39:57;101934.16;;;2.94;100.00
51460;BME280;37534;39.772;2.718;2023-12-20T01:42:23;101952.59;;;2.83;100.00
51460;BME280;37534;39.772;2.718;2023-12-20T01:44:49;101950.41;;;2.97;100.00
51460;BME280;37534;39.772;2.718;2023-12-20T01:47:14;101951.06;;;2.90;100.00
51460;BME280;37534;39.772;2.718;2023-12-20T01:49:40;101931.06;;;3.07;100.00
51460;BME280;37534;39.772;2.718;2023-12-20T01:52:07;101938.28;;;2.89;100.00
51460;BME280;37534;39.772;2.718;2023-12-20T01:54:33;101942.38;;;2.83;100.00
51460;BME280;37534;39.772;2.718;2023-12-20T01:56:59;101931.44;;;2.88;100.00
51460;BME280;37534;39.772;2.718;2023-12-20T01:59:25;101932.34;;;3.24;100.00
51460;BME280;37534;39.772;2.718;2023-12-20T02:01:51;101922.00;;;3.18;100.00
51460;BME280;37534;39.772;2.718;2023-12-20T02:04:17;101931.13;;;3.09;100.00
51460;BME280;37534;39.772;2.718;2023-12-20T02:06:43;101925.53;;;3.23;100.00
51460;BME280;37534;39.772;2.718;2023-12-20T02:09:11;101927.66;;;3.07;100.00
51460;BME280;37534;39.772;2.718;2023-12-20T02:11:37;101922.19;;;2.91;100.00
51460;BME280;37534;39.772;2.718;2023-12-20T02:14:03;101916.31;;;2.94;100.00
51460;BME280;37534;39.772;2.718;2023-12-20T02:16:29;101928.63;;;2.77;100.00
51460;BME280;37534;39.772;2.718;2023-12-20T02:18:55;101921.50;;;2.97;100.00
51460;BME280;37534;39.772;2.718;2023-12-20T02:21:33;101917.34;;;3.00;100.00
51460;BME280;37534;39.772;2.718;2023-12-20T02:24:00;101912.25;;;3.02;100.00
51460;BME280;37534;39.772;2.718;2023-12-20T02:26:25;101921.84;;;3.12;100.00
51460;BME280;37534;39.772;2.718;2023-12-20T02:28:51;101921.75;;;3.08;100.00
51460;BME280;37534;39.772;2.718;2023-12-20T02:31:23;101922.59;;;3.08;100.00
51460;BME280;37534;39.772;2.718;2023-12-20T02:33:48;101919.97;;;3.05;100.00
51460;BME280;37534;39.772;2.718;2023-12-20T02:36:14;101908.50;;;2.88;100.00
51460;BME280;37534;39.772;2.718;2023-12-20T02:38:39;101908.97;;;3.06;100.00
51460;BME280;37534;39.772;2.718;2023-12-20T02:41:05;101895.06;;;2.93;100.00
51460;BME280;37534;39.772;2.718;2023-12-20T02:43:30;101905.19;;;2.90;100.00
51460;BME280;37534;39.772;2.718;2023-12-20T02:45:56;101898.44;;;2.92;100.00
51460;BME280;37534;39.772;2.718;2023-12-20T02:48:22;101894.78;;;2.82;100.00
51460;BME280;37534;39.772;2.718;2023-12-20T02:50:48;101904.03;;;2.77;100.00
51460;BME280;37534;39.772;2.718;2023-12-20T02:53:14;101902.50;;;2.85;100.00
51460;BME280;37534;39.772;2.718;2023-12-20T02:55:40;101899.50;;;3.02;100.00
51460;BME280;37534;39.772;2.718;2023-12-20T02:58:05;101875.81;;;3.06;100.00
51460;BME280;37534;39.772;2.718;2023-12-20T03:00:31;101891.75;;;2.97;100.00
51460;BME280;37534;39.772;2.718;2023-12-20T03:02:56;101895.75;;;2.88;100.00
51460;BME280;37534;39.772;2.718;2023-12-20T03:05:22;101900.75;;;2.83;100.00
51460;BME280;37534;39.772;2.718;2023-12-20T03:07:47;101899.38;;;2.96;100.00
51460;BME280;37534;39.772;2.718;2023-12-20T03:10:13;101899.38;;;2.96;100.00
51460;BME280;37534;39.772;2.718;2023-12-20T03:12:38;101890.44;;;2.78;100.00
51460;BME280;37534;39.772;2.718;2023-12-20T03:15:04;101884.31;;;2.70;100.00
51460;BME280;37534;39.772;2.718;2023-12-20T03:17:30;101877.22;;;2.95;100.00
51460;BME280;37534;39.772;2.718;2023-12-20T03:19:55;101863.25;;;2.77;100.00
51460;BME280;37534;39.772;2.718;2023-12-20T03:22:21;101863.25;;;2.77;100.00
51460;BME280;37534;39.772;2.718;2023-12-20T03:24:46;101868.91;;;3.02;100.00
51460;BME280;37534;39.772;2.718;2023-12-20T03:27:11;101867.03;;;2.95;100.00
51460;BME280;37534;39.772;2.718;2023-12-20T03:29:37;101861.72;;;2.85;100.00
51460;BME280;37534;39.772;2.718;2023-12-20T03:32:03;101863.75;;;2.99;100.00
51460;BME280;37534;39.772;2.718;2023-12-20T03:34:28;101860.94;;;2.88;100.00
51460;BME280;37534;39.772;2.718;2023-12-20T03:36:54;101866.22;;;2.96;100.00
51460;BME280;37534;39.772;2.718;2023-12-20T03:39:20;101867.38;;;3.09;100.00
51460;BME280;37534;39.772;2.718;2023-12-20T03:41:45;101876.50;;;2.99;100.00
51460;BME280;37534;39.772;2.718;2023-12-20T03:44:11;101849.66;;;2.78;100.00
51460;BME280;37534;39.772;2.718;2023-12-20T03:46:36;101862.88;;;2.98;100.00
51460;BME280;37534;39.772;2.718;2023-12-20T03:49:02;101875.59;;;2.97;100.00
51460;BME280;37534;39.772;2.718;2023-12-20T03:51:27;101867.91;;;2.95;100.00
51460;BME280;37534;39.772;2.718;2023-12-20T03:53:52;101850.41;;;3.09;100.00
51460;BME280;37534;39.772;2.718;2023-12-20T03:56:18;101855.81;;;3.24;100.00
51460;BME280;37534;39.772;2.718;2023-12-20T03:58:43;101862.31;;;3.10;100.00
51460;BME280;37534;39.772;2.718;2023-12-20T04:01:10;101867.31;;;3.07;100.00
51460;BME280;37534;39.772;2.718;2023-12-20T04:03:39;101853.16;;;3.18;100.00
51460;BME280;37534;39.772;2.718;2023-12-20T04:06:05;101863.56;;;3.28;100.00
51460;BME280;37534;39.772;2.718;2023-12-20T04:08:31;101862.78;;;3.32;100.00
51460;BME280;37534;39.772;2.718;2023-12-20T04:10:56;101854.16;;;3.27;100.00
51460;BME280;37534;39.772;2.718;2023-12-20T04:13:22;101857.66;;;3.29;100.00
51460;BME280;37534;39.772;2.718;2023-12-20T04:15:47;101843.78;;;3.17;100.00
51460;BME280;37534;39.772;2.718;2023-12-20T04:18:15;101859.44;;;3.33;100.00
51460;BME280;37534;39.772;2.718;2023-12-20T04:20:41;101857.75;;;3.35;100.00
51460;BME280;37534;39.772;2.718;2023-12-20T04:23:06;101851.72;;;3.31;100.00
51460;BME280;37534;39.772;2.718;2023-12-20T04:25:31;101842.34;;;3.30;100.00
51460;BME280;37534;39.772;2.718;2023-12-20T04:27:57;101839.09;;;3.37;100.00
51460;BME280;37534;39.772;2.718;2023-12-20T04:30:22;101825.16;;;3.21;100.00
51460;BME280;37534;39.772;2.718;2023-12-20T04:32:48;101831.94;;;3.21;100.00
51460;BME280;37534;39.772;2.718;2023-12-20T04:35:13;101828.66;;;3.27;100.00
51460;BME280;37534;39.772;2.718;2023-12-20T04:37:39;101818.81;;;3.42;100.00
51460;BME280;37534;39.772;2.718;2023-12-20T04:40:05;101815.69;;;3.55;100.00
51460;BME280;37534;39.772;2.718;2023-12-20T04:42:31;101803.69;;;3.51;100.00
51460;BME280;37534;39.772;2.718;2023-12-20T04:44:56;101804.53;;;3.50;100.00
51460;BME280;37534;39.772;2.718;2023-12-20T04:47:22;101822.53;;;3.58;100.00
51460;BME280;37534;39.772;2.718;2023-12-20T04:49:47;101819.59;;;3.80;100.00
51460;BME280;37534;39.772;2.718;2023-12-20T04:52:13;101808.25;;;3.66;100.00
51460;BME280;37534;39.772;2.718;2023-12-20T04:54:39;101791.97;;;3.61;100.00
51460;BME280;37534;39.772;2.718;2023-12-20T04:57:04;101777.97;;;3.42;100.00
51460;BME280;37534;39.772;2.718;2023-12-20T04:59:30;101776.47;;;3.50;100.00
51460;BME280;37534;39.772;2.718;2023-12-20T05:01:55;101768.78;;;3.49;100.00
51460;BME280;37534;39.772;2.718;2023-12-20T05:04:21;101778.59;;;3.73;100.00
51460;BME280;37534;39.772;2.718;2023-12-20T05:06:46;101783.59;;;3.67;100.00
51460;BME280;37534;39.772;2.718;2023-12-20T05:09:12;101767.25;;;3.58;100.00
51460;BME280;37534;39.772;2.718;2023-12-20T05:11:37;101780.19;;;3.68;100.00
51460;BME280;37534;39.772;2.718;2023-12-20T05:14:03;101796.47;;;3.74;100.00
51460;BME280;37534;39.772;2.718;2023-12-20T05:16:28;101800.81;;;3.77;100.00
51460;BME280;37534;39.772;2.718;2023-12-20T05:18:54;101811.94;;;3.80;100.00
51460;BME280;37534;39.772;2.718;2023-12-20T05:21:19;101808.22;;;4.09;100.00
51460;BME280;37534;39.772;2.718;2023-12-20T05:23:45;101809.97;;;4.13;100.00
51460;BME280;37534;39.772;2.718;2023-12-20T05:26:11;101804.00;;;4.11;100.00
51460;BME280;37534;39.772;2.718;2023-12-20T05:28:36;101802.97;;;4.03;100.00
51460;BME280;37534;39.772;2.718;2023-12-20T05:31:02;101802.78;;;3.92;100.00
51460;BME280;37534;39.772;2.718;2023-12-20T05:33:28;101796.94;;;3.99;100.00
51460;BME280;37534;39.772;2.718;2023-12-20T05:35:53;101803.72;;;3.97;100.00
51460;BME280;37534;39.772;2.718;2023-12-20T05:38:19;101802.06;;;3.99;100.00
51460;BME280;37534;39.772;2.718;2023-12-20T05:40:44;101830.34;;;4.10;100.00
51460;BME280;37534;39.772;2.718;2023-12-20T05:43:10;101837.22;;;4.14;100.00
51460;BME280;37534;39.772;2.718;2023-12-20T05:45:36;101840.06;;;4.29;100.00
51460;BME280;37534;39.772;2.718;2023-12-20T05:48:01;101835.34;;;4.51;100.00
51460;BME280;37534;39.772;2.718;2023-12-20T05:50:27;101822.25;;;4.32;100.00
51460;BME280;37534;39.772;2.718;2023-12-20T05:52:52;101835.63;;;4.19;100.00
51460;BME280;37534;39.772;2.718;2023-12-20T05:55:18;101814.06;;;4.05;100.00
51460;BME280;37534;39.772;2.718;2023-12-20T05:57:44;101808.94;;;4.03;100.00
51460;BME280;37534;39.772;2.718;2023-12-20T06:00:10;101797.34;;;4.21;100.00
51460;BME280;37534;39.772;2.718;2023-12-20T06:02:35;101784.75;;;4.31;100.00
51460;BME280;37534;39.772;2.718;2023-12-20T06:05:04;101795.16;;;4.41;100.00
51460;BME280;37534;39.772;2.718;2023-12-20T06:07:29;101795.03;;;4.34;100.00
51460;BME280;37534;39.772;2.718;2023-12-20T06:09:55;101796.63;;;4.29;100.00
51460;BME280;37534;39.772;2.718;2023-12-20T06:12:20;101804.97;;;4.19;100.00
51460;BME280;37534;39.772;2.718;2023-12-20T06:14:46;101804.75;;;4.07;100.00
51460;BME280;37534;39.772;2.718;2023-12-20T06:17:11;101816.63;;;4.05;100.00
51460;BME280;37534;39.772;2.718;2023-12-20T06:19:37;101806.53;;;4.11;100.00
51460;BME280;37534;39.772;2.718;2023-12-20T06:22:02;101801.31;;;4.05;100.00
51460;BME280;37534;39.772;2.718;2023-12-20T06:24:28;101799.34;;;3.90;100.00
51460;BME280;37534;39.772;2.718;2023-12-20T06:26:54;101788.03;;;3.77;100.00
51460;BME280;37534;39.772;2.718;2023-12-20T06:29:20;101790.53;;;3.74;100.00
51460;BME280;37534;39.772;2.718;2023-12-20T06:31:46;101792.91;;;3.65;100.00
51460;BME280;37534;39.772;2.718;2023-12-20T06:34:11;101778.59;;;3.73;100.00
51460;BME280;37534;39.772;2.718;2023-12-20T06:36:37;101792.69;;;3.99;100.00
51460;BME280;37534;39.772;2.718;2023-12-20T06:39:02;101807.97;;;3.96;100.00
51460;BME280;37534;39.772;2.718;2023-12-20T06:41:30;101813.56;;;3.77;100.00
51460;BME280;37534;39.772;2.718;2023-12-20T06:43:55;101808.16;;;3.61;100.00
51460;BME280;37534;39.772;2.718;2023-12-20T06:46:21;101815.72;;;3.58;100.00
51460;BME280;37534;39.772;2.718;2023-12-20T06:48:46;101812.22;;;3.53;100.00
51460;BME280;37534;39.772;2.718;2023-12-20T06:51:16;101823.44;;;3.60;100.00
51460;BME280;37534;39.772;2.718;2023-12-20T06:53:42;101827.75;;;3.63;100.00
51460;BME280;37534;39.772;2.718;2023-12-20T06:56:07;101824.16;;;3.54;100.00
51460;BME280;37534;39.772;2.718;2023-12-20T06:58:34;101836.53;;;3.77;100.00
51460;BME280;37534;39.772;2.718;2023-12-20T07:01:00;101824.34;;;3.64;100.00
51460;BME280;37534;39.772;2.718;2023-12-20T07:03:26;101822.56;;;3.59;100.00
51460;BME280;37534;39.772;2.718;2023-12-20T07:05:52;101823.28;;;3.52;100.00
51460;BME280;37534;39.772;2.718;2023-12-20T07:08:17;101818.75;;;3.40;100.00
51460;BME280;37534;39.772;2.718;2023-12-20T07:10:43;101822.16;;;3.41;100.00
51460;BME280;37534;39.772;2.718;2023-12-20T07:13:08;101834.06;;;3.40;100.00
51460;BME280;37534;39.772;2.718;2023-12-20T07:15:34;101826.41;;;3.81;100.00
51460;BME280;37534;39.772;2.718;2023-12-20T07:18:01;101816.88;;;3.73;100.00
51460;BME280;37534;39.772;2.718;2023-12-20T07:20:26;101812.69;;;3.75;100.00
51460;BME280;37534;39.772;2.718;2023-12-20T07:22:52;101806.88;;;3.84;100.00
51460;BME280;37534;39.772;2.718;2023-12-20T07:25:17;101809.56;;;3.90;100.00
51460;BME280;37534;39.772;2.718;2023-12-20T07:27:43;101805.91;;;3.77;100.00
51460;BME280;37534;39.772;2.718;2023-12-20T07:30:09;101814.75;;;3.94;100.00
51460;BME280;37534;39.772;2.718;2023-12-20T07:32:34;101816.53;;;3.98;100.00
51460;BME280;37534;39.772;2.718;2023-12-20T07:35:00;101821.56;;;3.95;100.00
51460;BME280;37534;39.772;2.718;2023-12-20T07:37:25;101829.19;;;3.94;100.00
51460;BME280;37534;39.772;2.718;2023-12-20T07:39:51;101824.03;;;3.91;100.00
51460;BME280;37534;39.772;2.718;2023-12-20T07:42:16;101821.50;;;3.92;100.00
51460;BME280;37534;39.772;2.718;2023-12-20T07:44:42;101822.31;;;3.90;100.00
51460;BME280;37534;39.772;2.718;2023-12-20T07:47:07;101823.69;;;4.18;100.00
51460;BME280;37534;39.772;2.718;2023-12-20T07:49:33;101825.31;;;4.13;100.00
51460;BME280;37534;39.772;2.718;2023-12-20T07:51:59;101827.22;;;4.26;100.00
51460;BME280;37534;39.772;2.718;2023-12-20T07:54:24;101819.66;;;4.31;100.00
51460;BME280;37534;39.772;2.718;2023-12-20T07:56:50;101818.81;;;4.30;100.00
51460;BME280;37534;39.772;2.718;2023-12-20T07:59:15;101827.88;;;4.13;100.00
51460;BME280;37534;39.772;2.718;2023-12-20T08:01:41;101821.16;;;4.18;100.00
51460;BME280;37534;39.772;2.718;2023-12-20T08:04:08;101819.81;;;4.40;100.00
51460;BME280;37534;39.772;2.718;2023-12-20T08:06:33;101810.56;;;4.47;100.00
51460;BME280;37534;39.772;2.718;2023-12-20T08:08:59;101819.91;;;4.45;100.00
51460;BME280;37534;39.772;2.718;2023-12-20T08:11:28;101816.50;;;4.44;100.00
51460;BME280;37534;39.772;2.718;2023-12-20T08:13:53;101816.63;;;4.52;100.00
51460;BME280;37534;39.772;2.718;2023-12-20T08:16:19;101815.88;;;4.59;100.00
51460;BME280;37534;39.772;2.718;2023-12-20T08:18:45;101827.03;;;4.63;100.00
51460;BME280;37534;39.772;2.718;2023-12-20T08:21:11;101828.94;;;4.78;100.00
51460;BME280;37534;39.772;2.718;2023-12-20T08:23:37;101825.81;;;4.95;100.00
51460;BME280;37534;39.772;2.718;2023-12-20T08:26:06;101813.34;;;5.19;100.00
51460;BME280;37534;39.772;2.718;2023-12-20T08:28:32;101819.56;;;5.33;100.00
51460;BME280;37534;39.772;2.718;2023-12-20T08:30:57;101821.31;;;5.39;100.00
51460;BME280;37534;39.772;2.718;2023-12-20T08:33:23;101815.44;;;5.44;100.00
51460;BME280;37534;39.772;2.718;2023-12-20T08:35:48;101828.41;;;5.61;100.00
51460;BME280;37534;39.772;2.718;2023-12-20T08:38:14;101834.69;;;5.85;100.00
51460;BME280;37534;39.772;2.718;2023-12-20T08:40:39;101829.72;;;5.96;100.00
51460;BME280;37534;39.772;2.718;2023-12-20T08:43:05;101833.22;;;6.05;100.00
51460;BME280;37534;39.772;2.718;2023-12-20T08:45:31;101835.03;;;6.14;100.00
51460;BME280;37534;39.772;2.718;2023-12-20T08:47:56;101845.34;;;6.19;100.00
51460;BME280;37534;39.772;2.718;2023-12-20T08:50:22;101847.94;;;6.20;100.00
51460;BME280;37534;39.772;2.718;2023-12-20T08:52:47;101855.75;;;6.33;100.00
51460;BME280;37534;39.772;2.718;2023-12-20T08:55:13;101854.09;;;6.38;100.00
51460;BME280;37534;39.772;2.718;2023-12-20T08:57:40;101858.34;;;6.37;100.00
51460;BME280;37534;39.772;2.718;2023-12-20T09:00:06;101855.75;;;6.36;100.00
51460;BME280;37534;39.772;2.718;2023-12-20T09:02:33;101872.88;;;6.38;100.00
51460;BME280;37534;39.772;2.718;2023-12-20T09:05:01;101868.50;;;6.28;100.00
51460;BME280;37534;39.772;2.718;2023-12-20T09:07:28;101870.25;;;6.34;100.00
51460;BME280;37534;39.772;2.718;2023-12-20T09:09:56;101855.97;;;6.60;100.00
51460;BME280;37534;39.772;2.718;2023-12-20T09:12:22;101854.97;;;7.67;100.00
51460;BME280;37534;39.772;2.718;2023-12-20T09:14:48;101855.16;;;9.30;100.00
51460;BME280;37534;39.772;2.718;2023-12-20T09:17:15;101856.47;;;11.31;100.00
51460;BME280;37534;39.772;2.718;2023-12-20T09:19:41;101842.22;;;13.38;100.00
51460;BME280;37534;39.772;2.718;2023-12-20T09:22:09;101844.88;;;14.88;96.51
51460;BME280;37534;39.772;2.718;2023-12-20T09:24:35;101842.66;;;16.00;80.69
51460;BME280;37534;39.772;2.718;2023-12-20T09:27:01;101824.94;;;16.91;78.60
51460;BME280;37534;39.772;2.718;2023-12-20T09:29:26;101813.31;;;18.38;67.59
51460;BME280;37534;39.772;2.718;2023-12-20T09:31:52;101821.00;;;19.63;64.21
51460;BME280;37534;39.772;2.718;2023-12-20T09:34:17;101817.41;;;20.91;57.80
51460;BME280;37534;39.772;2.718;2023-12-20T09:36:43;101814.75;;;21.58;53.22
51460;BME280;37534;39.772;2.718;2023-12-20T09:39:16;101802.91;;;21.33;52.58
51460;BME280;37534;39.772;2.718;2023-12-20T09:41:51;101799.75;;;20.77;52.53
51460;BME280;37534;39.772;2.718;2023-12-20T09:44:23;101796.44;;;17.81;61.53
51460;BME280;37534;39.772;2.718;2023-12-20T09:46:49;101777.72;;;17.24;67.12
51460;BME280;37534;39.772;2.718;2023-12-20T09:49:17;101780.72;;;17.37;68.77
51460;BME280;37534;39.772;2.718;2023-12-20T09:51:44;101779.06;;;18.24;57.68
51460;BME280;37534;39.772;2.718;2023-12-20T09:54:16;101762.09;;;17.70;61.48
51460;BME280;37534;39.772;2.718;2023-12-20T09:56:42;101754.81;;;18.84;52.84
51460;BME280;37534;39.772;2.718;2023-12-20T09:59:08;101763.28;;;20.20;51.00
51460;BME280;37534;39.772;2.718;2023-12-20T10:01:34;101767.91;;;21.66;47.98
51460;BME280;37534;39.772;2.718;2023-12-20T10:04:00;101755.91;;;22.38;44.60
51460;BME280;37534;39.772;2.718;2023-12-20T10:06:32;101753.59;;;23.06;44.09
51460;BME280;37534;39.772;2.718;2023-12-20T10:08:58;101744.78;;;23.76;43.62
51460;BME280;37534;39.772;2.718;2023-12-20T10:11:24;101742.13;;;23.90;41.36
51460;BME280;37534;39.772;2.718;2023-12-20T10:13:50;101727.97;;;25.19;40.12
51460;BME280;37534;39.772;2.718;2023-12-20T10:16:15;101725.19;;;25.82;38.79
51460;BME280;37534;39.772;2.718;2023-12-20T10:18:41;101726.25;;;26.73;37.17
51460;BME280;37534;39.772;2.718;2023-12-20T10:21:07;101724.53;;;27.61;35.35
51460;BME280;37534;39.772;2.718;2023-12-20T10:23:35;101728.59;;;27.97;34.94
51460;BME280;37534;39.772;2.718;2023-12-20T10:26:02;101734.16;;;28.57;34.12
51460;BME280;37534;39.772;2.718;2023-12-20T10:28:33;101731.41;;;28.48;33.06
51460;BME280;37534;39.772;2.718;2023-12-20T10:30:59;101724.66;;;27.04;34.51
51460;BME280;37534;39.772;2.718;2023-12-20T10:33:26;101735.22;;;26.48;35.94
51460;BME280;37534;39.772;2.718;2023-12-20T10:35:52;101729.69;;;27.19;35.16
51460;BME280;37534;39.772;2.718;2023-12-20T10:38:18;101730.88;;;28.02;33.58
51460;BME280;37534;39.772;2.718;2023-12-20T10:40:45;101728.28;;;28.94;31.20
51460;BME280;37534;39.772;2.718;2023-12-20T10:43:11;101734.38;;;28.85;31.16
51460;BME280;37534;39.772;2.718;2023-12-20T10:45:37;101748.28;;;27.95;32.22
51460;BME280;37534;39.772;2.718;2023-12-20T10:48:03;101751.84;;;25.79;34.51
51460;BME280;37534;39.772;2.718;2023-12-20T10:50:29;101751.97;;;24.26;36.50
51460;BME280;37534;39.772;2.718;2023-12-20T10:52:57;101755.75;;;22.99;38.32
51460;BME280;37534;39.772;2.718;2023-12-20T10:55:23;101750.84;;;22.50;39.43
51460;BME280;37534;39.772;2.718;2023-12-20T10:58:00;101773.09;;;22.14;41.01
51460;BME280;37534;39.772;2.718;2023-12-20T11:00:26;101770.53;;;22.28;41.83
51460;BME280;37534;39.772;2.718;2023-12-20T11:02:53;101779.88;;;22.63;42.96
51460;BME280;37534;39.772;2.718;2023-12-20T11:08:09;101806.78;;;24.08;40.30
51460;BME280;37534;39.772;2.718;2023-12-20T11:10:47;101806.88;;;24.07;40.27
51460;BME280;37534;39.772;2.718;2023-12-20T11:14:07;101799.63;;;24.76;39.77
51460;BME280;37534;39.772;2.718;2023-12-20T11:16:13;101804.59;;;24.94;39.67
51460;BME280;37534;39.772;2.718;2023-12-20T11:18:40;101801.22;;;25.54;38.87
51460;BME280;37534;39.772;2.718;2023-12-20T11:21:06;101791.97;;;26.32;37.92
51460;BME280;37534;39.772;2.718;2023-12-20T11:23:32;101791.78;;;26.58;37.88
51460;BME280;37534;39.772;2.718;2023-12-20T11:25:59;101781.22;;;27.03;37.03
51460;BME280;37534;39.772;2.718;2023-12-20T11:28:26;101783.84;;;27.15;37.00
51460;BME280;37534;39.772;2.718;2023-12-20T11:30:56;101781.44;;;27.45;36.84
51460;BME280;37534;39.772;2.718;2023-12-20T11:33:26;101787.84;;;27.09;37.00
51460;BME280;37534;39.772;2.718;2023-12-20T11:35:52;101779.53;;;26.22;38.06
51460;BME280;37534;39.772;2.718;2023-12-20T11:38:21;101790.16;;;25.73;38.76
51460;BME280;37534;39.772;2.718;2023-12-20T11:40:48;101774.44;;;24.19;41.64
51460;BME280;37534;39.772;2.718;2023-12-20T11:43:30;101778.41;;;23.16;43.67
51460;BME280;37534;39.772;2.718;2023-12-20T11:46:02;101784.19;;;22.19;46.45
51460;BME280;37534;39.772;2.718;2023-12-20T11:48:30;101793.66;;;21.75;48.51
51460;BME280;37534;39.772;2.718;2023-12-20T11:50:56;101788.84;;;21.52;50.21
51460;BME280;37534;39.772;2.718;2023-12-20T11:53:22;101783.81;;;21.47;50.61
51460;BME280;37534;39.772;2.718;2023-12-20T11:55:49;101777.34;;;21.21;52.37
51460;BME280;37534;39.772;2.718;2023-12-20T11:58:14;101762.50;;;21.53;51.61
51460;BME280;37534;39.772;2.718;2023-12-20T12:00:44;101757.47;;;22.11;50.54
51460;BME280;37534;39.772;2.718;2023-12-20T12:03:10;101756.34;;;22.31;49.46
51460;BME280;37534;39.772;2.718;2023-12-20T12:05:35;101748.97;;;22.95;48.25
51460;BME280;37534;39.772;2.718;2023-12-20T12:08:02;101738.59;;;24.17;45.44
51460;BME280;37534;39.772;2.718;2023-12-20T12:10:29;101753.69;;;24.92;43.11
51460;BME280;37534;39.772;2.718;2023-12-20T12:12:55;101754.03;;;25.85;41.15
51460;BME280;37534;39.772;2.718;2023-12-20T12:15:20;101750.03;;;26.04;40.71
51460;BME280;37534;39.772;2.718;2023-12-20T12:17:56;101751.72;;;25.56;40.63
51460;BME280;37534;39.772;2.718;2023-12-20T12:20:23;101743.09;;;25.30;40.72
51460;BME280;37534;39.772;2.718;2023-12-20T12:23:04;101735.22;;;24.92;41.47
51460;BME280;37534;39.772;2.718;2023-12-20T12:25:32;101744.03;;;25.29;40.75
51460;BME280;37534;39.772;2.718;2023-12-20T12:27:58;101739.34;;;25.33;41.04
51460;BME280;37534;39.772;2.718;2023-12-20T12:30:24;101740.88;;;25.96;39.62
51460;BME280;37534;39.772;2.718;2023-12-20T12:32:51;101742.06;;;26.39;38.63
51460;BME280;37534;39.772;2.718;2023-12-20T12:35:19;101727.03;;;26.28;38.81
51460;BME280;37534;39.772;2.718;2023-12-20T12:37:46;101736.69;;;26.86;37.63
51460;BME280;37534;39.772;2.718;2023-12-20T12:40:13;101734.03;;;27.63;36.53
51460;BME280;37534;39.772;2.718;2023-12-20T12:42:40;101724.09;;;28.61;34.94
51460;BME280;37534;39.772;2.718;2023-12-20T12:45:06;101726.97;;;28.79;34.00
51460;BME280;37534;39.772;2.718;2023-12-20T12:47:37;101709.63;;;29.93;33.46